createdAt,value
2022-12-19T00:01:56.589Z,6.67
2022-12-19T00:04:23.709Z,7.33
2022-12-19T00:06:51.145Z,6.93
2022-12-19T00:09:18.073Z,5.50
2022-12-19T00:11:45.522Z,6.97
2022-12-19T00:14:12.867Z,6.90
2022-12-19T00:16:40.304Z,5.33
2022-12-19T00:19:09.714Z,4.83
2022-12-19T00:21:37.808Z,5.60
2022-12-19T00:24:12.407Z,6.00
2022-12-19T00:26:48.637Z,5.67
2022-12-19T00:29:16.313Z,5.20
2022-12-19T00:31:43.676Z,6.17
2022-12-19T00:34:11.375Z,5.37
2022-12-19T00:36:38.268Z,5.47
2022-12-19T00:39:08.449Z,6.27
2022-12-19T00:41:41.674Z,6.17
2022-12-19T00:44:14.332Z,6.47
2022-12-19T00:46:42.012Z,6.73
2022-12-19T00:49:09.229Z,6.80
2022-12-19T00:51:37.684Z,7.20
2022-12-19T00:54:07.386Z,4.73
2022-12-19T00:56:37.697Z,5.50
2022-12-19T00:59:05.716Z,4.60
2022-12-19T01:01:36.175Z,4.80
2022-12-19T01:06:53.619Z,5.60
2022-12-19T01:09:22.720Z,5.50
2022-12-19T01:12:09.097Z,5.10
2022-12-19T01:14:36.234Z,4.70
2022-12-19T01:17:03.158Z,4.47
2022-12-19T01:19:30.398Z,5.10
2022-12-19T01:21:57.330Z,4.77
2022-12-19T01:24:24.788Z,5.57
2022-12-19T01:26:51.936Z,5.07
2022-12-19T01:29:18.915Z,5.40
2022-12-19T01:31:45.769Z,6.20
2022-12-19T01:34:13.718Z,4.77
2022-12-19T01:36:40.964Z,5.60
2022-12-19T01:39:08.376Z,4.40
2022-12-19T01:41:35.878Z,5.57
2022-12-19T01:44:08.755Z,5.07
2022-12-19T01:46:50.671Z,5.67
2022-12-19T01:49:35.881Z,5.30
2022-12-19T01:52:10.356Z,4.67
2022-12-19T01:54:42.328Z,5.97
2022-12-19T01:57:14.169Z,4.90
2022-12-19T01:59:55.978Z,6.10
2022-12-19T02:02:37.508Z,5.53
2022-12-19T02:05:05.859Z,5.37
2022-12-19T02:07:34.382Z,5.83
2022-12-19T02:10:02.008Z,6.37
2022-12-19T02:12:34.759Z,6.43
2022-12-19T02:15:03.761Z,5.63
2022-12-19T02:17:52.865Z,6.80
2022-12-19T02:20:30.139Z,5.83
2022-12-19T02:23:45.460Z,7.20
2022-12-19T02:26:42.972Z,6.63
2022-12-19T02:29:53.005Z,6.83
2022-12-19T02:32:50.770Z,7.40
2022-12-19T02:35:33.361Z,7.50
2022-12-19T02:38:21.259Z,7.80
2022-12-19T02:41:18.843Z,6.73
2022-12-19T02:43:50.769Z,7.87
2022-12-19T02:46:26.407Z,8.07
2022-12-19T02:48:53.833Z,9.07
2022-12-19T02:51:20.717Z,7.47
2022-12-19T02:53:47.900Z,10.50
2022-12-19T02:56:20.975Z,11.90
2022-12-19T02:59:11.785Z,9.97
2022-12-19T03:01:50.240Z,10.67
2022-12-19T03:04:39.391Z,12.10
2022-12-19T03:07:38.436Z,10.40
2022-12-19T03:10:45.948Z,11.30
2022-12-19T03:13:23.383Z,9.73
2022-12-19T03:15:50.704Z,11.80
2022-12-19T03:18:18.315Z,10.93
2022-12-19T03:21:11.025Z,10.90
2022-12-19T03:23:39.588Z,10.40
2022-12-19T03:26:22.602Z,11.20
2022-12-19T03:29:08.844Z,10.60
2022-12-19T03:31:38.104Z,10.90
2022-12-19T03:34:27.955Z,10.77
2022-12-19T03:37:01.853Z,10.40
2022-12-19T03:39:31.399Z,10.00
2022-12-19T03:42:19.943Z,9.30
2022-12-19T03:44:47.673Z,11.07
2022-12-19T03:47:31.379Z,9.80
2022-12-19T03:49:58.301Z,9.40
2022-12-19T03:53:16.664Z,10.67
2022-12-19T03:55:53.639Z,9.27
2022-12-19T03:58:31.569Z,9.87
2022-12-19T04:01:00.877Z,10.67
2022-12-19T04:03:30.562Z,10.30
2022-12-19T04:06:00.545Z,10.23
2022-12-19T04:08:30.149Z,9.57
2022-12-19T04:11:14.166Z,11.30
2022-12-19T04:13:51.994Z,10.20
2022-12-19T04:16:44.804Z,10.80
2022-12-19T04:19:25.555Z,9.10
2022-12-19T04:22:00.439Z,10.97
2022-12-19T04:24:34.573Z,10.17
2022-12-19T04:27:04.083Z,10.23
2022-12-19T04:29:35.758Z,10.00
2022-12-19T04:32:05.315Z,10.63
2022-12-19T04:34:32.763Z,9.20
2022-12-19T04:37:03.513Z,9.63
2022-12-19T04:39:30.568Z,10.77
2022-12-19T04:41:57.543Z,10.27
2022-12-19T04:44:24.757Z,10.30
2022-12-19T04:46:52.229Z,10.50
2022-12-19T04:49:19.191Z,8.97
2022-12-19T04:51:46.480Z,9.53
2022-12-19T04:54:13.438Z,8.70
2022-12-19T04:56:40.734Z,10.40
2022-12-19T04:59:08.176Z,11.47
2022-12-19T05:01:35.317Z,10.40
2022-12-19T05:04:04.703Z,10.30
2022-12-19T05:06:32.635Z,11.27
2022-12-19T05:08:59.740Z,12.53
2022-12-19T05:11:26.629Z,12.10
2022-12-19T05:13:53.550Z,12.00
2022-12-19T05:16:20.524Z,10.63
2022-12-19T05:18:47.490Z,9.00
2022-12-19T05:21:14.637Z,9.30
2022-12-19T05:23:41.937Z,9.03
2022-12-19T05:26:10.803Z,10.40
2022-12-19T05:28:38.136Z,10.03
2022-12-19T05:31:12.909Z,10.07
2022-12-19T05:33:41.707Z,10.00
2022-12-19T05:36:09.849Z,10.00
2022-12-19T05:38:37.396Z,9.97
2022-12-19T05:41:13.946Z,9.30
2022-12-19T05:43:41.239Z,10.03
2022-12-19T05:46:08.688Z,11.23
2022-12-19T05:48:36.619Z,10.67
2022-12-19T05:51:04.471Z,10.77
2022-12-19T05:53:32.411Z,8.63
2022-12-19T05:56:16.615Z,9.63
2022-12-19T05:58:45.171Z,9.73
2022-12-19T06:01:27.629Z,9.43
2022-12-19T06:03:55.855Z,8.77
2022-12-19T06:06:26.150Z,10.43
2022-12-19T06:08:58.326Z,9.63
2022-12-19T06:11:26.231Z,8.70
2022-12-19T06:13:53.683Z,9.47
2022-12-19T06:16:22.414Z,8.90
2022-12-19T06:18:49.973Z,8.80
2022-12-19T06:21:20.593Z,10.73
2022-12-19T06:23:48.311Z,8.60
2022-12-19T06:26:20.164Z,7.53
2022-12-19T06:28:52.458Z,9.10
2022-12-19T06:31:21.639Z,9.67
2022-12-19T06:33:49.143Z,9.00
2022-12-19T06:36:25.654Z,10.17
2022-12-19T06:38:55.091Z,11.37
2022-12-19T06:41:40.352Z,11.43
2022-12-19T06:44:12.657Z,8.90
2022-12-19T06:46:40.545Z,8.97
2022-12-19T06:49:09.008Z,9.80
2022-12-19T06:51:36.343Z,7.27
2022-12-19T06:54:03.998Z,8.07
2022-12-19T06:56:36.835Z,7.57
2022-12-19T06:59:04.653Z,7.83
2022-12-19T07:01:59.423Z,8.90
2022-12-19T07:04:34.674Z,7.67
2022-12-19T07:07:02.211Z,7.70
2022-12-19T07:09:30.043Z,8.17
2022-12-19T07:11:57.063Z,8.50
2022-12-19T07:14:24.351Z,7.60
2022-12-19T07:16:53.047Z,8.03
2022-12-19T07:19:21.428Z,7.80
2022-12-19T07:21:49.065Z,7.73
2022-12-19T07:24:16.369Z,7.97
2022-12-19T07:26:44.651Z,7.67
2022-12-19T07:29:12.798Z,7.23
2022-12-19T07:31:40.142Z,7.30
2022-12-19T07:34:07.472Z,7.60
2022-12-19T07:36:35.153Z,7.83
2022-12-19T07:39:02.133Z,8.67
2022-12-19T07:41:29.429Z,9.17
2022-12-19T07:43:56.728Z,7.33
2022-12-19T07:46:24.155Z,7.00
2022-12-19T07:48:51.066Z,8.03
2022-12-19T07:51:18.363Z,8.03
2022-12-19T07:53:45.728Z,7.40
2022-12-19T07:56:13.084Z,7.13
2022-12-19T07:58:40.873Z,6.90
2022-12-19T08:01:08.258Z,7.30
2022-12-19T08:03:35.990Z,7.40
2022-12-19T08:06:06.459Z,7.57
2022-12-19T08:08:34.040Z,8.00
2022-12-19T08:11:17.446Z,7.50
2022-12-19T08:13:46.905Z,8.33
2022-12-19T08:16:14.982Z,8.50
2022-12-19T08:18:42.398Z,7.83
2022-12-19T08:21:10.697Z,8.20
2022-12-19T08:23:41.184Z,8.03
2022-12-19T08:26:12.727Z,10.97
2022-12-19T08:28:40.280Z,8.23
2022-12-19T08:31:11.396Z,7.77
2022-12-19T08:33:38.682Z,8.17
2022-12-19T08:36:18.707Z,7.37
2022-12-19T08:38:46.333Z,8.17
2022-12-19T08:41:15.112Z,9.40
2022-12-19T08:43:42.720Z,7.83
2022-12-19T08:46:10.029Z,7.97
2022-12-19T08:48:37.225Z,8.90
2022-12-19T08:51:07.882Z,17.83
2022-12-19T08:53:38.552Z,13.20
2022-12-19T08:56:23.710Z,8.60
2022-12-19T08:58:53.652Z,7.90
2022-12-19T09:01:23.903Z,7.00
2022-12-19T09:04:39.874Z,8.90
2022-12-19T09:06:38.899Z,7.90
2022-12-19T09:09:07.267Z,9.07
2022-12-19T09:11:34.620Z,7.60
2022-12-19T09:14:07.491Z,8.20
2022-12-19T09:16:34.834Z,6.70
2022-12-19T09:19:01.764Z,8.23
2022-12-19T09:21:30.063Z,7.03
2022-12-19T09:24:07.054Z,8.53
2022-12-19T09:26:35.302Z,6.90
2022-12-19T09:29:03.725Z,6.80
2022-12-19T09:31:38.316Z,8.37
2022-12-19T09:34:05.743Z,7.73
2022-12-19T09:36:32.745Z,7.90
2022-12-19T09:38:59.672Z,8.37
2022-12-19T09:41:57.630Z,7.90
2022-12-19T09:44:43.654Z,7.50
2022-12-19T09:47:20.045Z,7.37
2022-12-19T09:49:48.493Z,7.70
2022-12-19T09:52:30.235Z,8.20
2022-12-19T09:55:24.223Z,7.53
2022-12-19T09:58:32.587Z,7.67
2022-12-19T10:01:07.443Z,8.40
2022-12-19T10:03:43.820Z,8.27
2022-12-19T10:07:10.429Z,8.50
2022-12-19T10:10:47.473Z,9.57
2022-12-19T10:12:58.616Z,9.20
2022-12-19T10:15:58.736Z,8.20
2022-12-19T10:18:48.441Z,8.60
2022-12-19T10:24:41.004Z,10.20
2022-12-19T10:27:35.416Z,9.10
2022-12-19T10:30:21.079Z,19.63
2022-12-19T10:33:20.136Z,31.77
2022-12-19T10:36:02.312Z,11.90
2022-12-19T10:38:32.517Z,10.03
2022-12-19T10:41:24.809Z,9.40
2022-12-19T10:43:58.027Z,8.50
2022-12-19T10:46:46.158Z,8.23
2022-12-19T10:49:19.119Z,8.00
2022-12-19T10:52:04.626Z,8.77
2022-12-19T10:54:38.012Z,7.97
2022-12-19T10:57:28.993Z,7.47
2022-12-19T11:00:15.486Z,8.20
2022-12-19T11:02:48.720Z,7.60
2022-12-19T11:05:31.903Z,8.20
2022-12-19T11:08:04.543Z,8.97
2022-12-19T11:13:13.034Z,7.97
2022-12-19T11:19:24.093Z,7.70
2022-12-19T11:21:12.817Z,8.80
2022-12-19T11:29:18.727Z,8.60
2022-12-19T11:29:31.806Z,6.53
2022-12-19T11:29:33.381Z,7.93
2022-12-19T11:30:38.168Z,6.93
2022-12-19T11:34:23.746Z,6.87
2022-12-19T11:37:21.279Z,7.93
2022-12-19T11:40:02.668Z,8.23
2022-12-19T11:43:25.476Z,7.60
2022-12-19T11:46:08.339Z,8.47
2022-12-19T11:48:48.415Z,7.00
2022-12-19T11:51:49.431Z,9.17
2022-12-19T11:54:26.582Z,8.43
2022-12-19T11:56:53.561Z,8.40
2022-12-19T11:59:27.512Z,8.80
2022-12-19T12:02:28.359Z,8.23
2022-12-19T12:05:19.907Z,7.33
2022-12-19T12:09:27.843Z,8.90
2022-12-19T12:18:40.769Z,9.23
2022-12-19T12:25:01.411Z,8.60
2022-12-19T12:31:00.703Z,9.60
2022-12-19T12:31:01.414Z,8.77
2022-12-19T12:31:52.924Z,8.73
2022-12-19T12:32:00.980Z,9.53
2022-12-19T12:32:03.188Z,9.30
2022-12-19T12:35:50.922Z,9.53
2022-12-19T12:39:47.238Z,9.40
2022-12-19T12:43:34.307Z,9.90
2022-12-19T12:46:04.776Z,10.20
2022-12-19T12:48:50.477Z,10.97
2022-12-19T12:51:18.630Z,9.07
2022-12-19T12:53:48.026Z,9.87
2022-12-19T12:56:17.791Z,10.60
2022-12-19T12:58:48.504Z,9.90
2022-12-19T13:01:29.442Z,9.40
2022-12-19T13:04:07.608Z,10.23
2022-12-19T13:07:01.451Z,11.00
2022-12-19T13:09:31.673Z,9.43
2022-12-19T13:12:37.231Z,9.70
2022-12-19T13:15:26.971Z,10.90
2022-12-19T13:17:56.500Z,10.00
2022-12-19T13:20:29.381Z,9.90
2022-12-19T13:23:25.778Z,10.87
2022-12-19T13:25:54.787Z,10.60
2022-12-19T13:28:21.875Z,10.40
2022-12-19T13:31:22.850Z,9.23
2022-12-19T13:33:54.819Z,10.53
2022-12-19T13:39:49.773Z,12.43
2022-12-19T13:39:54.778Z,12.27
2022-12-19T13:42:55.507Z,9.93
2022-12-19T13:45:41.951Z,11.30
2022-12-19T13:48:19.204Z,11.60
2022-12-19T13:50:49.530Z,12.50
2022-12-19T13:53:30.013Z,13.47
2022-12-19T13:56:16.379Z,11.10
2022-12-19T13:58:58.399Z,12.40
2022-12-19T14:01:35.991Z,12.60
2022-12-19T14:04:27.688Z,11.13
2022-12-19T14:07:37.034Z,11.03
2022-12-19T14:11:34.255Z,12.97
2022-12-19T14:13:59.389Z,12.83
2022-12-19T14:16:43.602Z,11.00
2022-12-19T14:19:25.596Z,13.87
2022-12-19T14:22:04.209Z,13.87
2022-12-19T14:24:40.259Z,13.87
2022-12-19T14:28:26.362Z,13.30
2022-12-19T14:30:27.534Z,12.80
2022-12-19T14:33:46.944Z,12.13
2022-12-19T14:36:07.678Z,14.07
2022-12-19T14:39:27.356Z,14.83
2022-12-19T14:42:07.497Z,15.00
2022-12-19T14:54:02.055Z,17.03
2022-12-19T14:54:04.327Z,16.70
2022-12-19T14:54:15.012Z,17.87
2022-12-19T14:54:41.910Z,19.03
2022-12-19T14:59:06.373Z,18.70
2022-12-19T15:01:35.307Z,20.20
2022-12-19T15:04:53.510Z,18.43
2022-12-19T15:07:21.343Z,18.30
2022-12-19T15:10:59.577Z,18.87
2022-12-19T15:14:52.739Z,18.93
2022-12-19T15:16:06.404Z,17.87
2022-12-19T15:18:33.396Z,20.27
2022-12-19T15:21:08.496Z,21.00
2022-12-19T15:23:35.546Z,22.60
2022-12-19T15:26:07.355Z,23.57
2022-12-19T15:28:43.102Z,22.73
2022-12-19T15:31:41.449Z,16.57
2022-12-19T15:34:37.248Z,15.87
2022-12-19T15:37:10.689Z,17.33
2022-12-19T15:39:38.073Z,20.70
2022-12-19T15:42:06.735Z,15.17
2022-12-19T15:44:40.208Z,15.10
2022-12-19T15:47:19.679Z,15.43
2022-12-19T15:49:47.253Z,19.30
2022-12-19T15:52:20.041Z,19.90
2022-12-19T15:54:49.400Z,20.30
2022-12-19T15:57:39.955Z,19.70
2022-12-19T16:00:19.606Z,19.13
2022-12-19T16:03:22.848Z,21.80
2022-12-19T16:05:34.980Z,20.10
2022-12-19T16:08:02.069Z,22.40
2022-12-19T16:10:29.867Z,22.63
2022-12-19T16:12:58.011Z,21.30
2022-12-19T16:15:31.892Z,21.83
2022-12-19T16:18:02.943Z,17.30
2022-12-19T16:20:39.572Z,17.47
2022-12-19T16:23:07.960Z,17.30
2022-12-19T16:25:43.322Z,18.10
2022-12-19T16:28:25.816Z,16.73
2022-12-19T16:30:53.411Z,16.53
2022-12-19T16:33:23.978Z,16.63
2022-12-19T16:36:04.186Z,20.80
2022-12-19T16:38:32.309Z,18.03
2022-12-19T16:40:59.595Z,14.37
2022-12-19T16:43:37.591Z,16.70
2022-12-19T16:46:07.300Z,17.23
2022-12-19T16:48:37.917Z,17.07
2022-12-19T16:51:04.946Z,17.53
2022-12-19T16:53:33.731Z,18.20
2022-12-19T16:56:01.294Z,19.90
2022-12-19T16:58:28.841Z,17.67
2022-12-19T17:00:56.628Z,17.97
2022-12-19T17:03:37.930Z,18.50
2022-12-19T17:06:04.910Z,19.37
2022-12-19T17:08:32.436Z,20.07
2022-12-19T17:10:59.690Z,21.90
2022-12-19T17:13:27.072Z,20.40
2022-12-19T17:15:57.079Z,19.67
2022-12-19T17:18:41.835Z,19.30
2022-12-19T17:21:16.855Z,21.60
2022-12-19T17:23:44.421Z,20.20
2022-12-19T17:26:17.405Z,20.20
2022-12-19T17:28:48.486Z,18.37
2022-12-19T17:31:26.514Z,16.97
2022-12-19T17:33:56.250Z,19.43
2022-12-19T17:36:32.695Z,19.93
2022-12-19T17:39:27.838Z,19.80
2022-12-19T17:41:58.875Z,17.97
2022-12-19T17:44:25.824Z,17.43
2022-12-19T17:46:52.927Z,19.40
2022-12-19T17:49:29.773Z,18.57
2022-12-19T17:51:59.349Z,19.33
2022-12-19T17:54:27.586Z,19.20
2022-12-19T17:56:55.526Z,20.10
2022-12-19T17:59:22.920Z,38.70
2022-12-19T18:01:50.622Z,40.33
2022-12-19T18:04:20.773Z,31.53
2022-12-19T18:06:49.372Z,24.07
2022-12-19T18:09:22.109Z,20.20
2022-12-19T18:11:50.659Z,20.60
2022-12-19T18:14:18.760Z,20.30
2022-12-19T18:16:46.476Z,20.57
2022-12-19T18:19:24.757Z,22.00
2022-12-19T18:21:51.901Z,21.40
2022-12-19T18:24:19.767Z,19.80
2022-12-19T18:26:47.189Z,21.60
2022-12-19T18:29:14.705Z,21.23
2022-12-19T18:31:49.771Z,22.07
2022-12-19T18:34:22.859Z,21.67
2022-12-19T18:36:51.175Z,21.90
2022-12-19T18:39:24.760Z,21.10
2022-12-19T18:41:52.674Z,22.00
2022-12-19T18:44:20.451Z,20.53
2022-12-19T18:46:50.643Z,23.37
2022-12-19T18:49:18.607Z,21.47
2022-12-19T18:51:46.128Z,21.47
2022-12-19T18:54:22.050Z,21.30
2022-12-19T18:56:49.787Z,21.63
2022-12-19T18:59:17.076Z,20.70
2022-12-19T19:01:46.940Z,20.93
2022-12-19T19:04:17.839Z,19.83
2022-12-19T19:06:51.629Z,21.17
2022-12-19T19:09:21.374Z,19.80
2022-12-19T19:11:48.511Z,21.70
2022-12-19T19:14:15.491Z,23.33
2022-12-19T19:16:42.848Z,21.83
2022-12-19T19:19:14.952Z,23.83
2022-12-19T19:21:42.624Z,20.30
2022-12-19T19:24:15.311Z,55.80
2022-12-19T19:26:42.403Z,33.00
2022-12-19T19:29:10.148Z,22.00
2022-12-19T19:31:41.030Z,20.73
2022-12-19T19:34:29.955Z,21.50
2022-12-19T19:37:01.461Z,22.90
2022-12-19T19:39:31.946Z,20.80
2022-12-19T19:41:59.284Z,22.00
2022-12-19T19:44:26.789Z,20.53
2022-12-19T19:46:53.900Z,21.77
2022-12-19T19:49:21.898Z,23.80
2022-12-19T19:51:49.153Z,22.73
2022-12-19T19:54:16.237Z,22.00
2022-12-19T19:56:43.224Z,22.20
2022-12-19T19:59:10.179Z,20.73
2022-12-19T20:01:37.696Z,23.03
2022-12-19T20:04:05.006Z,22.07
2022-12-19T20:06:32.161Z,23.67
2022-12-19T20:08:59.105Z,22.90
2022-12-19T20:11:26.533Z,22.97
2022-12-19T20:13:53.951Z,23.30
2022-12-19T20:16:21.030Z,21.97
2022-12-19T20:18:51.705Z,23.10
2022-12-19T20:21:20.129Z,20.90
2022-12-19T20:23:47.700Z,23.97
2022-12-19T20:26:16.882Z,23.13
2022-12-19T20:28:49.472Z,22.83
2022-12-19T20:31:22.556Z,23.47
2022-12-19T20:33:50.698Z,22.73
2022-12-19T20:36:18.154Z,23.33
2022-12-19T20:38:46.242Z,21.40
2022-12-19T20:41:13.461Z,21.97
2022-12-19T20:43:41.348Z,20.47
2022-12-19T20:46:15.813Z,22.77
2022-12-19T20:48:43.388Z,20.20
2022-12-19T20:51:11.835Z,40.83
2022-12-19T20:53:39.786Z,31.93
2022-12-19T20:56:09.230Z,23.93
2022-12-19T20:58:38.065Z,22.40
2022-12-19T21:01:09.243Z,24.10
2022-12-19T21:03:37.980Z,23.00
2022-12-19T21:06:06.749Z,25.30
2022-12-19T21:08:34.414Z,21.80
2022-12-19T21:11:03.987Z,22.60
2022-12-19T21:13:31.137Z,21.43
2022-12-19T21:16:02.948Z,23.60
2022-12-19T21:18:30.655Z,22.90
2022-12-19T21:20:59.331Z,24.83
2022-12-19T21:23:27.436Z,22.63
2022-12-19T21:26:01.301Z,20.40
2022-12-19T21:28:29.355Z,21.17
2022-12-19T21:31:14.991Z,22.40
2022-12-19T21:33:42.361Z,23.07
2022-12-19T21:36:21.702Z,22.70
2022-12-19T21:38:51.416Z,22.03
2022-12-19T21:41:19.318Z,22.70
2022-12-19T21:43:55.035Z,21.60
2022-12-19T21:46:25.535Z,22.77
2022-12-19T21:48:54.886Z,23.43
2022-12-19T21:51:26.566Z,20.83
2022-12-19T21:53:56.990Z,20.63
2022-12-19T21:56:26.861Z,21.93
2022-12-19T21:59:15.507Z,21.37
2022-12-19T22:01:43.610Z,22.40
2022-12-19T22:04:17.924Z,22.93
2022-12-19T22:06:44.948Z,23.10
2022-12-19T22:09:15.710Z,22.43
2022-12-19T22:11:42.984Z,21.80
2022-12-19T22:14:13.385Z,22.80
2022-12-19T22:16:40.468Z,22.87
2022-12-19T22:19:07.952Z,22.27
2022-12-19T22:21:34.979Z,22.30
2022-12-19T22:24:04.768Z,20.97
2022-12-19T22:26:32.307Z,20.17
2022-12-19T22:28:59.784Z,20.50
2022-12-19T22:31:30.662Z,22.80
2022-12-19T22:34:01.069Z,24.47
2022-12-19T22:36:29.867Z,23.57
2022-12-19T22:38:59.075Z,23.00
2022-12-19T22:41:27.662Z,22.43
2022-12-19T22:43:55.730Z,21.57
2022-12-19T22:46:37.533Z,23.40
2022-12-19T22:49:07.183Z,21.40
2022-12-19T22:51:35.863Z,20.20
2022-12-19T22:54:04.495Z,21.53
2022-12-19T22:56:33.803Z,20.80
2022-12-19T22:59:05.829Z,21.27
2022-12-19T23:01:40.783Z,21.10
2022-12-19T23:04:13.937Z,21.60
2022-12-19T23:06:41.428Z,20.20
2022-12-19T23:09:12.368Z,21.60
2022-12-19T23:11:41.363Z,20.07
2022-12-19T23:14:12.552Z,21.10
2022-12-19T23:16:39.433Z,21.97
2022-12-19T23:19:07.186Z,22.17
2022-12-19T23:21:34.156Z,20.10
2022-12-19T23:24:01.355Z,20.90
2022-12-19T23:26:32.123Z,23.70
2022-12-19T23:29:09.842Z,22.13
2022-12-19T23:31:41.278Z,22.57
2022-12-19T23:34:08.678Z,25.03
2022-12-19T23:37:09.520Z,25.97
2022-12-19T23:39:22.515Z,23.73
2022-12-19T23:41:49.496Z,24.67
2022-12-19T23:44:16.643Z,22.80
2022-12-19T23:46:43.667Z,23.50
2022-12-19T23:49:10.591Z,24.37
2022-12-19T23:51:37.801Z,24.60
2022-12-19T23:54:04.768Z,23.47
2022-12-19T23:56:32.678Z,22.63
2022-12-19T23:59:00.053Z,23.20
